Terminal Aerodrome Forecast
Issued by NWS

Home | Current Version | Previous Version | Text Only | Print | Product List | Glossary On
Versions: 1 2 3 4 5 6 7 8 9 10 11 12 13 14 15 16 17
000
FTUS42 KMLB 220500
TAFSFB
TAF
KSFB 220540Z 2206/2306 00000KT P6SM BKN080 BKN250
     FM221500 11005KT P6SM SCT025 BKN250
     FM221800 13006KT P6SM SCT035 SCT100 BKN250 PROB30 2220/2223 3SM
      TSRA BKN025CB
     FM230200 15003KT P6SM SCT050 BKN150=

USA.gov is the U.S. government's official web portal to all federal, state and local government web resources and services.